Time;durP1;ratioP1;P1;durP2;ratioP2;P2;SDS_P1;SDS_P2;PMS_P1;PMS_P2;Temp;Humidity;BMP_temperature;BMP_pressure;BME280_temperature;BME280_humidity;BME280_pressure;Samples;Min_cycle;Max_cycle;Signal;HPM_P1;HPM_P2
2023/02/20 00:00:59;;;;;;;2.83;1.93;;;3.90;99.90;;;;;;5075576;28;20439;-57
2023/02/20 00:03:26;;;;;;;6.87;2.60;;;3.70;99.90;;;;;;5075749;28;20487;-60
2023/02/20 00:05:53;;;;;;;2.77;2.40;;;3.70;99.90;;;;;;5075448;28;20444;-63
2023/02/20 00:08:20;;;;;;;2.27;1.50;;;4.10;99.90;;;;;;5075209;28;20502;-60
2023/02/20 00:10:47;;;;;;;2.33;1.60;;;3.90;99.90;;;;;;5076012;28;20430;-62
2023/02/20 00:13:13;;;;;;;16.67;2.00;;;3.90;99.90;;;;;;5076073;28;20439;-61
2023/02/20 00:15:40;;;;;;;4.27;1.93;;;4.00;99.90;;;;;;5075375;28;20478;-61
2023/02/20 00:18:11;;;;;;;5.77;2.60;;;4.50;99.90;;;;;;5075748;28;20474;-63
2023/02/20 00:20:38;;;;;;;2.57;2.20;;;3.70;99.90;;;;;;5075329;28;20478;-60
2023/02/20 00:23:04;;;;;;;7.30;2.17;;;3.90;99.90;;;;;;5075230;28;20447;-62
2023/02/20 00:25:34;;;;;;;2.07;1.50;;;4.20;99.90;;;;;;5075080;28;20482;-62
2023/02/20 00:28:01;;;;;;;3.53;2.07;;;3.90;99.90;;;;;;5075276;28;20483;-64
2023/02/20 00:30:28;;;;;;;3.07;2.37;;;4.00;99.90;;;;;;5074712;28;20478;-59
2023/02/20 00:32:56;;;;;;;7.10;2.60;;;4.30;99.90;;;;;;5075128;28;20438;-62
2023/02/20 00:35:26;;;;;;;3.53;1.73;;;4.20;99.90;;;;;;5075065;28;20475;-61
2023/02/20 00:37:54;;;;;;;4.83;1.90;;;3.90;99.90;;;;;;5075135;28;20505;-60
2023/02/20 00:40:22;;;;;;;8.63;2.47;;;3.80;99.90;;;;;;5075250;28;20523;-62
2023/02/20 00:42:49;;;;;;;2.77;2.10;;;4.20;99.90;;;;;;5074573;28;20467;-62
2023/02/20 00:45:17;;;;;;;2.70;2.50;;;4.20;99.90;;;;;;5074744;28;20473;-61
2023/02/20 00:47:45;;;;;;;4.40;2.50;;;3.80;99.90;;;;;;5075004;28;20483;-62
2023/02/20 00:50:14;;;;;;;5.60;2.20;;;4.00;99.90;;;;;;5075132;28;20422;-62
2023/02/20 00:52:42;;;;;;;5.57;1.97;;;3.80;99.90;;;;;;5074863;28;20819;-63
2023/02/20 00:55:09;;;;;;;2.07;1.60;;;3.80;99.90;;;;;;5074794;28;20443;-63
2023/02/20 00:57:36;;;;;;;5.70;2.20;;;4.00;99.90;;;;;;5075118;28;20432;-62
2023/02/20 01:00:05;;;;;;;7.47;2.87;;;4.20;99.90;;;;;;5074665;28;20463;-60
2023/02/20 01:02:32;;;;;;;3.10;2.50;;;3.70;99.90;;;;;;5074902;28;20454;-61
2023/02/20 01:04:59;;;;;;;3.43;1.83;;;3.90;99.90;;;;;;5074849;28;20466;-62
2023/02/20 01:07:26;;;;;;;4.10;3.00;;;3.60;99.90;;;;;;5074421;28;20509;-62
2023/02/20 01:09:54;;;;;;;13.60;2.53;;;3.70;99.90;;;;;;5074228;28;20470;-58
2023/02/20 01:12:21;;;;;;;4.07;2.80;;;4.00;99.90;;;;;;5074824;28;20431;-61
2023/02/20 01:14:48;;;;;;;5.93;2.73;;;3.80;99.90;;;;;;5074781;28;20446;-62
2023/02/20 01:17:16;;;;;;;2.80;2.17;;;3.80;99.90;;;;;;5074342;28;20439;-61
2023/02/20 01:19:44;;;;;;;4.13;2.90;;;4.10;99.90;;;;;;5074475;28;20451;-60
2023/02/20 01:22:11;;;;;;;2.57;2.00;;;3.80;99.90;;;;;;5074656;28;20475;-61
2023/02/20 01:24:38;;;;;;;3.77;2.23;;;3.60;99.90;;;;;;5074925;28;20471;-60
2023/02/20 01:27:06;;;;;;;7.53;3.67;;;4.10;99.90;;;;;;5074261;28;20511;-62
2023/02/20 01:29:33;;;;;;;4.90;2.20;;;4.20;99.90;;;;;;5074589;28;20450;-59
2023/02/20 01:32:00;;;;;;;3.23;2.10;;;3.60;99.90;;;;;;5074931;28;20444;-60
2023/02/20 01:34:27;;;;;;;3.60;2.20;;;4.00;99.90;;;;;;5074939;28;20459;-62
2023/02/20 01:36:55;;;;;;;5.73;3.60;;;4.00;99.90;;;;;;5074902;28;20446;-62
2023/02/20 01:39:24;;;;;;;2.70;1.67;;;3.70;99.90;;;;;;5074874;28;20837;-61
2023/02/20 01:41:54;;;;;;;4.10;2.40;;;4.10;99.90;;;;;;5074308;28;20427;-59
2023/02/20 01:44:25;;;;;;;3.43;2.03;;;4.10;99.90;;;;;;5074278;28;20467;-60
2023/02/20 01:46:55;;;;;;;4.83;3.00;;;3.60;99.90;;;;;;5074336;28;20455;-62
2023/02/20 01:49:30;;;;;;;4.40;3.20;;;3.90;99.90;;;;;;5074595;28;20506;-59
2023/02/20 01:52:03;;;;;;;3.63;2.23;;;3.80;99.90;;;;;;5074324;28;20417;-62
2023/02/20 01:54:31;;;;;;;4.87;2.47;;;4.20;99.90;;;;;;5074057;28;20459;-62
2023/02/20 01:57:01;;;;;;;2.57;2.17;;;3.90;99.90;;;;;;5074084;28;20439;-62
2023/02/20 01:59:33;;;;;;;6.13;2.93;;;3.80;99.90;;;;;;5074011;28;20431;-61
2023/02/20 02:02:00;;;;;;;3.47;2.17;;;4.10;99.90;;;;;;5074567;28;20424;-60
2023/02/20 02:04:28;;;;;;;5.57;2.70;;;3.70;99.90;;;;;;5073959;28;20439;-63
2023/02/20 02:06:55;;;;;;;5.43;2.80;;;3.70;99.90;;;;;;5074048;28;20620;-59
2023/02/20 02:09:32;;;;;;;2.70;2.17;;;3.70;99.90;;;;;;5073656;28;20431;-62
2023/02/20 02:11:59;;;;;;;3.67;2.60;;;4.00;99.90;;;;;;5074405;28;20462;-63
2023/02/20 02:14:26;;;;;;;4.23;2.43;;;4.10;99.90;;;;;;5074658;28;20459;-62
2023/02/20 02:17:13;;;;;;;5.10;2.40;;;3.80;99.90;;;;;;5074488;28;20498;-62
2023/02/20 02:20:15;;;;;;;4.87;2.80;;;3.70;99.90;;;;;;5073941;28;20423;-63
2023/02/20 02:23:07;;;;;;;3.33;1.90;;;3.70;99.90;;;;;;5074467;28;20466;-61
2023/02/20 02:25:47;;;;;;;3.00;1.60;;;3.70;99.90;;;;;;5073937;28;20442;-61
2023/02/20 02:28:41;;;;;;;3.70;2.10;;;4.10;99.90;;;;;;5074180;28;20565;-62
2023/02/20 02:31:43;;;;;;;9.53;2.83;;;4.10;99.90;;;;;;5072138;28;20455;-62
2023/02/20 02:34:36;;;;;;;6.60;2.33;;;4.20;99.90;;;;;;5073626;28;20486;-61
2023/02/20 02:37:15;;;;;;;2.37;2.13;;;3.90;99.90;;;;;;5051931;28;20427;-61
2023/02/20 02:39:48;;;;;;;6.93;2.47;;;4.20;99.90;;;;;;5076499;28;20467;-62
2023/02/20 02:42:22;;;;;;;4.30;2.33;;;4.20;99.90;;;;;;5077692;28;20428;-61
2023/02/20 02:44:56;;;;;;;5.37;3.10;;;3.90;99.90;;;;;;5077400;28;20474;-62
2023/02/20 02:47:34;;;;;;;4.70;2.43;;;4.20;99.90;;;;;;5077224;28;20506;-61
2023/02/20 02:50:05;;;;;;;3.37;2.20;;;4.30;99.90;;;;;;5077748;28;20458;-63
2023/02/20 02:52:45;;;;;;;5.57;2.97;;;3.90;99.90;;;;;;5077632;28;20419;-62
2023/02/20 02:55:14;;;;;;;5.70;2.60;;;4.10;99.90;;;;;;5077570;28;20412;-60
2023/02/20 02:57:41;;;;;;;5.00;2.93;;;4.80;99.90;;;;;;5077436;28;20440;-59
2023/02/20 03:00:15;;;;;;;5.97;3.30;;;4.50;99.90;;;;;;5077507;28;20443;-60
2023/02/20 03:02:49;;;;;;;5.07;3.27;;;4.10;99.90;;;;;;5077277;28;20477;-61
2023/02/20 03:05:20;;;;;;;3.50;2.10;;;3.60;99.90;;;;;;5077232;28;20428;-58
2023/02/20 03:07:51;;;;;;;6.90;3.53;;;4.20;99.90;;;;;;5076999;28;20493;-62
2023/02/20 03:10:30;;;;;;;4.70;2.63;;;5.50;99.90;;;;;;5076647;28;20427;-61
2023/02/20 03:13:01;;;;;;;4.40;3.27;;;4.70;99.90;;;;;;5077132;28;20482;-59
2023/02/20 03:15:34;;;;;;;9.43;3.77;;;5.00;99.90;;;;;;5075268;28;20431;-61
2023/02/20 03:18:10;;;;;;;4.30;3.40;;;4.70;99.90;;;;;;5075622;28;20466;-62
2023/02/20 03:20:41;;;;;;;9.83;3.50;;;4.50;99.90;;;;;;5076023;28;20577;-63
2023/02/20 03:23:17;;;;;;;4.90;2.30;;;4.60;99.90;;;;;;5076119;28;20435;-59
2023/02/20 03:25:50;;;;;;;4.17;2.30;;;4.60;99.90;;;;;;5076077;28;20423;-59
2023/02/20 03:28:21;;;;;;;5.00;2.60;;;4.90;99.90;;;;;;5076197;28;20499;-61
2023/02/20 03:30:53;;;;;;;3.47;3.07;;;4.70;99.90;;;;;;5076769;28;20478;-61
2023/02/20 03:44:34;;;;;;;3.03;2.63;;;4.80;99.90;;;;;;5076191;28;20791;-62
2023/02/20 03:47:02;;;;;;;5.00;3.30;;;4.90;99.90;;;;;;5075989;28;20475;-60
2023/02/20 03:49:34;;;;;;;5.40;3.20;;;5.30;99.90;;;;;;5075280;28;20479;-61
2023/02/20 03:52:01;;;;;;;5.73;3.80;;;4.90;99.90;;;;;;5075510;28;20479;-63
2023/02/20 03:54:33;;;;;;;8.63;2.90;;;5.30;99.90;;;;;;5075434;28;20458;-61
2023/02/20 03:57:04;;;;;;;4.70;3.10;;;5.50;99.90;;;;;;5076070;28;20478;-61
2023/02/20 03:59:35;;;;;;;6.13;4.23;;;5.40;99.90;;;;;;5076019;28;20439;-58
2023/02/20 04:02:07;;;;;;;5.93;4.20;;;5.10;99.90;;;;;;5075584;28;20495;-60
2023/02/20 04:04:41;;;;;;;5.33;3.20;;;5.00;99.90;;;;;;5075889;28;20412;-63
2023/02/20 04:07:15;;;;;;;4.83;3.30;;;5.10;99.90;;;;;;5075430;28;20424;-63
2023/02/20 04:09:48;;;;;;;4.53;3.33;;;5.00;99.90;;;;;;5075532;28;20473;-62
2023/02/20 04:12:21;;;;;;;7.13;3.90;;;5.30;99.90;;;;;;5075373;28;20412;-61
2023/02/20 04:14:50;;;;;;;7.03;3.13;;;5.20;99.90;;;;;;5075380;28;20506;-62
2023/02/20 04:17:24;;;;;;;5.27;3.53;;;5.70;99.90;;;;;;5075065;28;20778;-61
2023/02/20 04:19:51;;;;;;;6.27;3.33;;;5.70;99.90;;;;;;5075314;28;20459;-63
2023/02/20 04:22:21;;;;;;;4.87;2.70;;;5.40;99.90;;;;;;5074877;28;20523;-61
2023/02/20 04:24:54;;;;;;;7.17;3.67;;;5.20;99.90;;;;;;5075223;28;20471;-61
2023/02/20 04:27:21;;;;;;;5.90;3.30;;;5.20;99.90;;;;;;5074367;28;20884;-61
2023/02/20 04:29:48;;;;;;;7.73;4.40;;;5.70;99.90;;;;;;5074698;28;20482;-63
2023/02/20 04:32:15;;;;;;;5.40;2.80;;;5.40;99.90;;;;;;5074842;28;20470;-61
2023/02/20 04:34:45;;;;;;;5.23;3.40;;;5.40;99.90;;;;;;5073841;28;20447;-62
2023/02/20 04:37:15;;;;;;;6.93;3.13;;;5.60;99.90;;;;;;5073745;28;20483;-63
2023/02/20 04:39:42;;;;;;;6.17;4.53;;;5.20;99.90;;;;;;5074273;28;20524;-62
2023/02/20 04:42:11;;;;;;;6.90;3.70;;;5.40;99.90;;;;;;5074642;28;20510;-62
2023/02/20 04:44:39;;;;;;;5.07;3.40;;;5.40;99.90;;;;;;5073838;28;20764;-62
2023/02/20 04:47:08;;;;;;;6.50;3.83;;;5.50;99.90;;;;;;5074254;28;20570;-63
2023/02/20 04:49:35;;;;;;;9.73;4.00;;;5.40;99.90;;;;;;5073578;28;20498;-58
2023/02/20 04:52:02;;;;;;;8.20;4.40;;;6.00;99.90;;;;;;5074803;28;20447;-62
2023/02/20 04:54:29;;;;;;;7.83;4.20;;;5.50;99.90;;;;;;5073820;28;20458;-61
2023/02/20 04:56:56;;;;;;;4.40;2.90;;;5.50;99.90;;;;;;5073306;28;20466;-62
2023/02/20 04:59:24;;;;;;;6.80;3.57;;;5.40;99.90;;;;;;5073587;28;20439;-62
2023/02/20 05:01:53;;;;;;;6.23;3.37;;;5.50;99.90;;;;;;5073180;28;20486;-62
2023/02/20 05:04:21;;;;;;;6.10;2.73;;;5.50;99.90;;;;;;5073892;28;20463;-63
2023/02/20 05:06:51;;;;;;;6.57;3.33;;;5.50;99.90;;;;;;5073985;28;20440;-62
2023/02/20 05:09:18;;;;;;;6.70;3.00;;;6.30;99.90;;;;;;5073326;28;20513;-64
2023/02/20 05:11:45;;;;;;;6.67;3.90;;;6.00;99.90;;;;;;5073482;28;20439;-62
2023/02/20 05:14:12;;;;;;;6.93;3.30;;;5.50;99.90;;;;;;5072877;28;20451;-62
2023/02/20 05:16:41;;;;;;;4.63;3.30;;;6.00;99.90;;;;;;5073470;28;20474;-63
2023/02/20 05:19:09;;;;;;;8.20;3.80;;;6.20;99.90;;;;;;5072689;28;20439;-63
2023/02/20 05:24:27;;;;;;;6.53;3.87;;;5.90;99.90;;;;;;5066758;28;20491;-60
2023/02/20 05:26:54;;;;;;;6.40;4.03;;;5.90;99.90;;;;;;5072489;28;20532;-63
2023/02/20 05:29:21;;;;;;;7.77;4.53;;;5.90;99.90;;;;;;5072705;28;20510;-62
2023/02/20 05:31:49;;;;;;;10.03;4.90;;;5.70;99.90;;;;;;5072946;28;20490;-61
2023/02/20 05:34:16;;;;;;;6.47;4.43;;;5.00;99.90;;;;;;5072462;28;20538;-63
2023/02/20 05:36:43;;;;;;;5.30;3.40;;;6.10;99.90;;;;;;5072955;28;20859;-62
2023/02/20 05:39:10;;;;;;;8.73;5.00;;;5.70;99.90;;;;;;5072593;28;20454;-63
2023/02/20 05:41:39;;;;;;;7.23;4.80;;;6.00;99.90;;;;;;5072136;28;20431;-63
2023/02/20 05:44:06;;;;;;;7.63;4.60;;;5.50;99.90;;;;;;5071122;28;20487;-62
2023/02/20 05:46:38;;;;;;;8.30;4.73;;;5.80;99.90;;;;;;5071788;28;20507;-59
2023/02/20 05:49:07;;;;;;;7.63;4.20;;;5.90;99.90;;;;;;5071440;28;20520;-63
2023/02/20 05:51:34;;;;;;;5.93;3.73;;;6.10;99.90;;;;;;5071552;28;20489;-62
2023/02/20 05:54:00;;;;;;;8.03;3.77;;;6.20;99.90;;;;;;5070431;28;20783;-62
2023/02/20 05:56:28;;;;;;;5.57;4.27;;;5.80;99.90;;;;;;5070921;28;20440;-62
2023/02/20 05:58:56;;;;;;;7.33;5.03;;;5.90;99.90;;;;;;5071894;28;20455;-64
2023/02/20 06:01:25;;;;;;;8.97;4.50;;;5.90;99.90;;;;;;5070598;28;20447;-61
2023/02/20 06:03:52;;;;;;;5.23;4.10;;;5.90;99.90;;;;;;5070967;28;20446;-59
2023/02/20 06:06:21;;;;;;;7.90;4.20;;;6.00;99.90;;;;;;5069831;28;20482;-63
2023/02/20 06:08:48;;;;;;;7.00;4.40;;;5.90;99.90;;;;;;5071033;28;20475;-63
2023/02/20 06:11:16;;;;;;;4.87;4.37;;;6.20;99.90;;;;;;5071398;28;20514;-63
2023/02/20 06:13:44;;;;;;;6.87;4.23;;;6.00;99.90;;;;;;5074828;28;20495;-63
2023/02/20 06:16:11;;;;;;;6.20;4.70;;;6.30;99.90;;;;;;5074829;28;20513;-62
2023/02/20 06:18:39;;;;;;;9.10;5.10;;;6.40;99.90;;;;;;5074655;28;20435;-63
2023/02/20 06:21:08;;;;;;;5.00;3.27;;;6.10;99.90;;;;;;5074831;28;20454;-63
2023/02/20 06:23:37;;;;;;;10.73;5.57;;;6.00;99.90;;;;;;5075333;28;20438;-61
2023/02/20 06:26:04;;;;;;;4.30;3.03;;;6.10;99.90;;;;;;5074529;28;20466;-60
2023/02/20 06:28:31;;;;;;;7.90;4.73;;;6.10;99.90;;;;;;5073742;28;20491;-62
2023/02/20 06:30:58;;;;;;;6.77;4.33;;;6.20;99.90;;;;;;5075013;28;20474;-59
2023/02/20 06:33:25;;;;;;;5.90;3.80;;;6.10;99.90;;;;;;5074174;28;20502;-63
2023/02/20 06:35:52;;;;;;;4.33;3.87;;;6.10;99.90;;;;;;5074536;28;20474;-62
2023/02/20 06:38:19;;;;;;;8.57;4.93;;;6.50;99.90;;;;;;5074423;28;20462;-61
2023/02/20 06:40:47;;;;;;;8.30;4.93;;;6.30;99.90;;;;;;5074114;28;20447;-61
2023/02/20 06:43:16;;;;;;;9.53;5.50;;;6.10;99.90;;;;;;5075206;28;20443;-62
2023/02/20 06:45:43;;;;;;;8.43;4.93;;;6.20;99.90;;;;;;5074213;28;20447;-62
2023/02/20 06:48:09;;;;;;;7.37;4.50;;;6.20;99.90;;;;;;5074240;28;20455;-63
2023/02/20 06:50:36;;;;;;;12.80;5.43;;;6.20;99.90;;;;;;5075035;28;20486;-62
2023/02/20 06:53:03;;;;;;;6.57;4.80;;;6.70;99.90;;;;;;5075178;28;20439;-64
2023/02/20 06:55:31;;;;;;;12.07;6.53;;;6.30;99.90;;;;;;5074620;28;20467;-64
2023/02/20 06:58:02;;;;;;;18.47;6.23;;;6.30;99.90;;;;;;5074939;28;20447;-62
2023/02/20 07:00:29;;;;;;;9.60;5.43;;;6.30;99.90;;;;;;5074575;28;20431;-63
2023/02/20 07:02:56;;;;;;;6.57;4.33;;;6.70;99.90;;;;;;5074112;28;20427;-63
2023/02/20 07:05:23;;;;;;;10.90;5.23;;;6.70;99.90;;;;;;5073583;28;20479;-58
2023/02/20 07:07:50;;;;;;;8.73;5.73;;;6.40;99.90;;;;;;5074272;28;20471;-64
2023/02/20 07:10:18;;;;;;;9.97;6.30;;;6.40;99.90;;;;;;5074102;28;20502;-64
2023/02/20 07:12:45;;;;;;;8.63;6.20;;;6.50;99.90;;;;;;5074792;28;20495;-62
2023/02/20 07:15:13;;;;;;;7.93;5.53;;;6.40;99.90;;;;;;5074613;28;20892;-61
2023/02/20 07:17:40;;;;;;;11.93;6.20;;;7.00;99.90;;;;;;5073278;28;20468;-64
2023/02/20 07:20:09;;;;;;;12.77;6.50;;;6.60;99.90;;;;;;5065052;28;20513;-63
2023/02/20 07:22:38;;;;;;;13.43;6.47;;;6.50;99.90;;;;;;5064036;28;20450;-64
2023/02/20 07:25:10;;;;;;;9.50;4.90;;;6.60;99.90;;;;;;5062334;28;20506;-64
2023/02/20 07:27:37;;;;;;;12.40;7.27;;;6.60;99.90;;;;;;5066436;28;20851;-63
2023/02/20 07:30:05;;;;;;;12.20;6.10;;;7.00;99.90;;;;;;5070549;28;20536;-63
2023/02/20 07:32:33;;;;;;;40.97;16.77;;;6.60;99.90;;;;;;5071483;28;20471;-63
2023/02/20 07:35:00;;;;;;;9.13;5.97;;;6.90;99.90;;;;;;5068955;28;20522;-63
2023/02/20 07:37:27;;;;;;;15.63;6.00;;;7.20;99.90;;;;;;5063311;28;20482;-65
2023/02/20 07:39:53;;;;;;;10.80;6.30;;;7.50;99.90;;;;;;5062694;28;20499;-65
2023/02/20 07:42:20;;;;;;;10.40;6.30;;;7.50;99.90;;;;;;5062192;28;20439;-64
2023/02/20 07:44:47;;;;;;;6.87;5.40;;;7.10;99.90;;;;;;5062510;28;20538;-64
2023/02/20 07:47:14;;;;;;;9.43;6.50;;;7.50;99.90;;;;;;5062651;28;20494;-64
2023/02/20 07:49:44;;;;;;;11.20;5.33;;;7.10;99.90;;;;;;5063345;28;20589;-65
2023/02/20 07:52:13;;;;;;;7.20;4.97;;;7.40;99.90;;;;;;5062803;28;20467;-65
2023/02/20 07:54:41;;;;;;;8.40;6.47;;;6.70;99.90;;;;;;5062447;28;20450;-63
2023/02/20 07:57:10;;;;;;;7.90;4.90;;;6.90;99.90;;;;;;5063329;28;20533;-64
2023/02/20 07:59:37;;;;;;;7.00;4.90;;;7.30;99.90;;;;;;5070341;28;20447;-64
2023/02/20 08:02:04;;;;;;;10.13;5.20;;;7.20;99.90;;;;;;5068553;28;20905;-63
2023/02/20 08:04:31;;;;;;;6.10;4.17;;;7.30;99.90;;;;;;5062147;28;20893;-66
2023/02/20 08:07:00;;;;;;;12.17;6.03;;;7.20;99.90;;;;;;5061785;28;20653;-65
2023/02/20 08:09:26;;;;;;;10.10;5.80;;;7.60;99.90;;;;;;5061370;28;21056;-68
2023/02/20 08:11:53;;;;;;;8.40;4.77;;;7.30;99.90;;;;;;5061779;28;20987;-66
2023/02/20 08:14:20;;;;;;;7.40;4.83;;;7.30;99.90;;;;;;5061107;28;20514;-66
2023/02/20 08:16:47;;;;;;;9.17;4.70;;;7.60;99.90;;;;;;5061566;28;20443;-67
2023/02/20 08:19:14;;;;;;;6.00;3.90;;;7.20;99.90;;;;;;5061606;28;20573;-64
2023/02/20 08:21:44;;;;;;;6.10;5.00;;;7.30;99.90;;;;;;5061240;28;20466;-66
2023/02/20 08:24:12;;;;;;;6.70;4.40;;;7.40;99.90;;;;;;5061291;28;20447;-68
2023/02/20 08:26:44;;;;;;;4.33;3.13;;;7.50;99.90;;;;;;5060553;28;20534;-67
2023/02/20 08:29:11;;;;;;;13.03;4.93;;;7.40;99.90;;;;;;5060534;28;20467;-68
2023/02/20 08:31:38;;;;;;;5.27;4.07;;;7.50;99.90;;;;;;5060987;28;20978;-67
2023/02/20 08:34:05;;;;;;;12.67;5.90;;;7.50;99.90;;;;;;5061097;28;20514;-66
2023/02/20 08:36:32;;;;;;;11.17;5.70;;;7.60;99.90;;;;;;5060762;28;20521;-64
2023/02/20 08:39:00;;;;;;;6.50;4.03;;;7.60;99.90;;;;;;5060413;28;20479;-67
2023/02/20 08:41:28;;;;;;;9.17;6.63;;;8.30;99.90;;;;;;5061315;28;20482;-63
2023/02/20 08:43:55;;;;;;;10.13;7.63;;;7.60;99.90;;;;;;5061147;28;20435;-66
2023/02/20 08:46:22;;;;;;;8.43;4.80;;;7.90;99.90;;;;;;5059108;28;20455;-67
2023/02/20 08:48:49;;;;;;;6.00;3.40;;;8.20;99.90;;;;;;5060317;28;20454;-69
2023/02/20 08:51:20;;;;;;;5.13;3.10;;;8.00;99.90;;;;;;5060347;28;20447;-64
2023/02/20 08:53:48;;;;;;;5.80;3.70;;;7.70;99.90;;;;;;5060673;28;20493;-63
2023/02/20 08:56:19;;;;;;;7.70;4.30;;;8.10;99.90;;;;;;5062818;28;20483;-67
2023/02/20 08:58:47;;;;;;;10.00;4.47;;;7.80;99.90;;;;;;5075847;28;20491;-67
2023/02/20 09:01:14;;;;;;;5.17;4.00;;;7.80;99.90;;;;;;5070439;28;20450;-63
2023/02/20 09:03:42;;;;;;;11.00;6.97;;;7.80;99.90;;;;;;5066793;28;20503;-66
2023/02/20 09:06:09;;;;;;;7.60;3.37;;;7.80;99.90;;;;;;5067627;28;20464;-64
2023/02/20 09:08:36;;;;;;;9.57;5.93;;;7.80;99.90;;;;;;5069106;28;20439;-68
2023/02/20 09:11:03;;;;;;;5.03;3.60;;;8.00;99.90;;;;;;5067027;28;20788;-65
2023/02/20 09:13:30;;;;;;;5.80;4.20;;;8.00;99.90;;;;;;5068321;28;20439;-63
2023/02/20 09:15:58;;;;;;;5.10;3.40;;;8.10;99.90;;;;;;5067299;28;20466;-64
2023/02/20 09:18:25;;;;;;;5.03;3.60;;;8.10;99.90;;;;;;5067833;28;20447;-63
2023/02/20 09:20:52;;;;;;;9.67;3.93;;;8.20;99.90;;;;;;5068108;28;20951;-60
2023/02/20 09:23:23;;;;;;;4.33;3.13;;;6.90;99.90;;;;;;5068144;28;20584;-62
2023/02/20 09:25:50;;;;;;;3.97;2.77;;;8.90;99.90;;;;;;5067853;28;20454;-62
2023/02/20 09:28:17;;;;;;;4.47;3.13;;;8.30;99.90;;;;;;5066823;28;20483;-66
2023/02/20 09:30:45;;;;;;;2.93;2.40;;;8.30;99.90;;;;;;5066597;28;20471;-60
2023/02/20 09:33:16;;;;;;;6.80;3.40;;;8.30;99.90;;;;;;5067861;28;20446;-65
2023/02/20 09:35:43;;;;;;;3.83;3.03;;;8.40;99.90;;;;;;5066933;28;20442;-69
2023/02/20 09:38:12;;;;;;;5.63;3.13;;;8.50;99.90;;;;;;5065337;28;20502;-66
2023/02/20 09:40:39;;;;;;;5.97;2.97;;;8.90;99.90;;;;;;5066111;28;20489;-62
2023/02/20 09:43:18;;;;;;;5.47;3.83;;;8.50;99.90;;;;;;5066000;28;20548;-64
2023/02/20 09:45:51;;;;;;;4.63;2.47;;;8.60;99.90;;;;;;5066775;28;20462;-66
2023/02/20 09:48:31;;;;;;;6.17;3.63;;;8.60;99.90;;;;;;5065784;28;20440;-64
2023/02/20 09:51:02;;;;;;;4.50;2.40;;;9.00;99.90;;;;;;5067624;28;20499;-64
2023/02/20 09:53:34;;;;;;;8.70;3.83;;;8.80;99.90;;;;;;5066388;28;20434;-65
2023/02/20 09:56:04;;;;;;;6.43;4.10;;;9.00;99.90;;;;;;5064537;28;20515;-65
2023/02/20 09:58:43;;;;;;;4.00;2.87;;;8.90;99.90;;;;;;5064719;28;20439;-64
2023/02/20 10:01:13;;;;;;;3.13;2.10;;;9.30;99.90;;;;;;5064265;28;20464;-65
2023/02/20 10:03:54;;;;;;;4.60;3.43;;;9.00;99.90;;;;;;5065269;28;20478;-64
2023/02/20 10:06:24;;;;;;;5.63;3.20;;;9.10;99.90;;;;;;5065926;28;20463;-64
2023/02/20 10:08:52;;;;;;;5.53;3.47;;;9.00;99.90;;;;;;5065195;28;20858;-64
2023/02/20 10:11:36;;;;;;;6.53;2.77;;;9.10;99.90;;;;;;5064094;28;20536;-64
2023/02/20 10:14:31;;;;;;;4.37;2.93;;;9.30;99.90;;;;;;5063393;28;20463;-66
2023/02/20 10:17:09;;;;;;;3.30;2.13;;;9.20;99.90;;;;;;5065389;28;20549;-65
2023/02/20 10:19:43;;;;;;;14.17;4.60;;;9.30;99.90;;;;;;5066032;28;20466;-64
2023/02/20 10:22:13;;;;;;;4.00;3.33;;;9.30;99.90;;;;;;5067029;28;20422;-62
2023/02/20 10:24:55;;;;;;;5.50;3.00;;;9.40;99.90;;;;;;5067986;28;20895;-65
2023/02/20 10:27:35;;;;;;;4.03;2.63;;;9.20;99.90;;;;;;5068760;28;20455;-64
2023/02/20 10:30:04;;;;;;;4.63;2.70;;;9.20;99.90;;;;;;5066855;28;20491;-65
2023/02/20 10:32:38;;;;;;;2.20;1.73;;;9.20;99.90;;;;;;5066525;28;20443;-66
2023/02/20 10:35:09;;;;;;;2.70;1.90;;;9.30;99.90;;;;;;5066291;28;20466;-63
2023/02/20 10:37:40;;;;;;;6.50;1.73;;;9.30;99.90;;;;;;5066877;28;20427;-66
2023/02/20 10:40:17;;;;;;;3.00;2.10;;;9.30;99.90;;;;;;5067848;28;20505;-67
2023/02/20 10:42:50;;;;;;;8.43;4.40;;;9.60;99.90;;;;;;5066061;28;20513;-66
2023/02/20 10:45:26;;;;;;;8.47;3.70;;;9.40;99.90;;;;;;5066028;28;20526;-64
2023/02/20 10:47:59;;;;;;;3.83;2.70;;;9.40;99.90;;;;;;5066013;28;20497;-64
2023/02/20 10:50:35;;;;;;;3.90;2.90;;;9.40;99.90;;;;;;5064787;28;20956;-66
2023/02/20 10:53:12;;;;;;;4.90;2.57;;;9.70;99.90;;;;;;5065109;28;20489;-65
2023/02/20 10:55:48;;;;;;;6.00;2.70;;;9.50;99.90;;;;;;5066970;28;20427;-62
2023/02/20 10:58:21;;;;;;;7.20;3.53;;;9.60;99.90;;;;;;5064656;28;20442;-63
2023/02/20 11:00:53;;;;;;;5.57;3.90;;;9.60;99.90;;;;;;5068591;28;20427;-63
2023/02/20 11:03:24;;;;;;;2.80;2.10;;;9.60;99.90;;;;;;5067259;28;20459;-63
2023/02/20 11:05:56;;;;;;;4.93;3.13;;;9.70;99.90;;;;;;5066901;28;20490;-64
2023/02/20 11:08:23;;;;;;;4.23;2.63;;;9.70;99.90;;;;;;5067136;28;20478;-65
2023/02/20 11:10:55;;;;;;;2.37;1.87;;;9.80;99.90;;;;;;5067220;28;20511;-62
2023/02/20 11:13:25;;;;;;;9.30;2.90;;;9.80;99.90;;;;;;5068631;28;20471;-62
2023/02/20 11:15:57;;;;;;;6.47;3.50;;;9.80;99.90;;;;;;5068918;28;20457;-61
2023/02/20 11:18:28;;;;;;;4.53;2.80;;;9.90;99.90;;;;;;5066377;28;20489;-64
2023/02/20 11:20:56;;;;;;;4.10;2.30;;;9.80;99.90;;;;;;5064664;28;20424;-65
2023/02/20 11:23:39;;;;;;;4.73;2.97;;;9.80;99.90;;;;;;5064306;28;20458;-65
2023/02/20 11:26:33;;;;;;;3.53;2.40;;;9.80;99.90;;;;;;5064531;28;20447;-65
2023/02/20 11:29:06;;;;;;;3.70;1.77;;;9.80;99.90;;;;;;5062642;28;20431;-65
2023/02/20 11:31:35;;;;;;;5.27;3.17;;;9.80;99.90;;;;;;5061432;28;20563;-62
2023/02/20 11:34:04;;;;;;;5.77;3.27;;;9.90;99.90;;;;;;5060887;28;20530;-66
2023/02/20 11:36:38;;;;;;;8.73;4.43;;;9.90;99.90;;;;;;5061001;28;20471;-65
2023/02/20 11:39:20;;;;;;;5.03;3.77;;;10.00;99.90;;;;;;5061263;28;20814;-65
2023/02/20 11:41:51;;;;;;;4.13;2.87;;;9.90;99.90;;;;;;5060773;28;20467;-64
2023/02/20 11:44:25;;;;;;;15.53;2.97;;;9.90;99.90;;;;;;5060139;28;20461;-66
2023/02/20 11:47:20;;;;;;;4.70;3.30;;;9.90;99.90;;;;;;5066946;28;20454;-66
2023/02/20 11:49:47;;;;;;;4.80;3.47;;;9.90;99.90;;;;;;5066999;28;20436;-66
2023/02/20 11:52:20;;;;;;;4.30;3.10;;;10.00;99.90;;;;;;5067906;28;20486;-66
2023/02/20 11:54:47;;;;;;;4.17;2.60;;;10.00;99.90;;;;;;5066520;28;20443;-65
2023/02/20 11:57:24;;;;;;;6.50;2.83;;;10.00;99.90;;;;;;5065883;28;20467;-67
2023/02/20 11:59:52;;;;;;;8.30;3.40;;;10.00;99.90;;;;;;5073224;28;20461;-60
2023/02/20 12:02:25;;;;;;;4.80;3.90;;;10.00;99.90;;;;;;5075078;28;20920;-64
2023/02/20 12:05:12;;;;;;;3.73;2.50;;;10.20;99.90;;;;;;5075379;28;20400;-62
2023/02/20 12:07:43;;;;;;;5.00;2.80;;;10.00;99.90;;;;;;5074679;28;20454;-65
2023/02/20 12:10:34;;;;;;;3.90;3.47;;;10.00;99.90;;;;;;5073746;28;20517;-65
2023/02/20 12:13:06;;;;;;;1.73;1.53;;;10.00;99.90;;;;;;5074689;28;20443;-63
2023/02/20 12:15:33;;;;;;;6.47;4.00;;;10.00;99.90;;;;;;5074813;28;20463;-65
2023/02/20 12:18:42;;;;;;;4.60;2.60;;;10.00;99.90;;;;;;5075110;28;20880;-62
2023/02/20 12:21:18;;;;;;;4.57;2.73;;;10.00;99.90;;;;;;5074423;28;20459;-63
2023/02/20 12:23:57;;;;;;;5.87;2.67;;;10.10;99.90;;;;;;5074946;28;20423;-67
2023/02/20 12:26:43;;;;;;;7.60;4.33;;;10.10;99.90;;;;;;5073703;28;20467;-65
2023/02/20 12:29:18;;;;;;;4.00;3.23;;;10.20;99.90;;;;;;5073760;28;20434;-63
2023/02/20 12:31:59;;;;;;;5.43;3.30;;;10.20;99.90;;;;;;5073211;28;20527;-62
2023/02/20 12:34:41;;;;;;;7.43;3.20;;;10.30;99.90;;;;;;5073980;28;20462;-64
2023/02/20 12:37:21;;;;;;;6.00;2.80;;;10.30;99.90;;;;;;5072969;28;20471;-68
2023/02/20 12:40:02;;;;;;;5.57;3.70;;;10.30;99.90;;;;;;5073516;28;20450;-64
2023/02/20 12:42:38;;;;;;;5.17;3.10;;;10.20;99.90;;;;;;5073531;28;20526;-62
2023/02/20 12:45:34;;;;;;;5.27;2.27;;;10.30;99.90;;;;;;5073859;28;20451;-66
2023/02/20 12:48:30;;;;;;;5.73;3.07;;;10.20;99.90;;;;;;5073648;28;20973;-61
2023/02/20 12:51:10;;;;;;;22.67;5.03;;;10.30;99.90;;;;;;5073989;28;20547;-62
2023/02/20 12:53:51;;;;;;;5.87;3.90;;;10.20;99.90;;;;;;5072236;28;20467;-67
2023/02/20 12:56:29;;;;;;;9.10;4.70;;;9.00;99.90;;;;;;5065801;28;20609;-66
2023/02/20 12:59:07;;;;;;;8.60;4.97;;;10.00;99.90;;;;;;5055533;28;20898;-66
2023/02/20 13:01:35;;;;;;;8.37;5.23;;;10.20;99.90;;;;;;5057754;28;20420;-65
2023/02/20 13:04:06;;;;;;;7.90;4.80;;;10.10;99.90;;;;;;5064022;28;20479;-65
2023/02/20 13:06:38;;;;;;;6.13;4.50;;;10.10;99.90;;;;;;5064878;28;20510;-62
2023/02/20 13:09:16;;;;;;;7.77;5.03;;;10.20;99.90;;;;;;5069660;28;20462;-64
2023/02/20 13:11:48;;;;;;;6.87;4.73;;;10.00;99.90;;;;;;5074429;28;20521;-65
2023/02/20 13:14:28;;;;;;;8.60;5.80;;;9.90;99.90;;;;;;5074128;28;20431;-64
2023/02/20 13:17:08;;;;;;;6.97;4.70;;;9.90;99.90;;;;;;5073434;28;20467;-64
2023/02/20 13:19:39;;;;;;;9.70;6.10;;;9.90;99.90;;;;;;5074325;28;20446;-62
2023/02/20 13:22:06;;;;;;;9.50;6.50;;;9.80;99.90;;;;;;5073300;28;20464;-62
2023/02/20 13:24:35;;;;;;;7.27;3.43;;;9.80;99.90;;;;;;5073909;28;20435;-66
2023/02/20 13:27:06;;;;;;;9.30;5.57;;;9.70;99.90;;;;;;5074329;28;20467;-65
2023/02/20 13:29:36;;;;;;;11.57;6.77;;;9.60;99.90;;;;;;5073965;28;20462;-68